sensor_id;sensor_type;location;lat;lon;timestamp;P1;durP1;ratioP1;P2;durP2;ratioP2
35243;SDS011;37916;52.160;21.066;2023-04-21T00:09:46;11.93;;;6.67;;
35243;SDS011;37916;52.160;21.066;2023-04-21T00:19:47;10.30;;;7.00;;
35243;SDS011;37916;52.160;21.066;2023-04-21T00:29:47;10.07;;;6.43;;
35243;SDS011;37916;52.160;21.066;2023-04-21T00:39:48;9.95;;;5.88;;
35243;SDS011;37916;52.160;21.066;2023-04-21T00:49:49;10.68;;;5.57;;
35243;SDS011;37916;52.160;21.066;2023-04-21T00:59:50;11.45;;;6.00;;
35243;SDS011;37916;52.160;21.066;2023-04-21T01:09:51;8.85;;;5.80;;
35243;SDS011;37916;52.160;21.066;2023-04-21T01:19:51;10.50;;;6.18;;
35243;SDS011;37916;52.160;21.066;2023-04-21T01:29:55;13.27;;;6.90;;
35243;SDS011;37916;52.160;21.066;2023-04-21T01:39:57;11.45;;;6.40;;
35243;SDS011;37916;52.160;21.066;2023-04-21T01:50:00;8.87;;;5.80;;
35243;SDS011;37916;52.160;21.066;2023-04-21T02:00:01;9.93;;;5.53;;
35243;SDS011;37916;52.160;21.066;2023-04-21T02:10:03;10.20;;;6.00;;
35243;SDS011;37916;52.160;21.066;2023-04-21T02:20:04;9.43;;;6.22;;
35243;SDS011;37916;52.160;21.066;2023-04-21T02:30:06;8.70;;;5.55;;
35243;SDS011;37916;52.160;21.066;2023-04-21T02:40:07;9.77;;;6.07;;
35243;SDS011;37916;52.160;21.066;2023-04-21T02:50:08;11.68;;;5.57;;
35243;SDS011;37916;52.160;21.066;2023-04-21T03:00:09;11.98;;;5.90;;
35243;SDS011;37916;52.160;21.066;2023-04-21T03:10:11;13.00;;;5.80;;
35243;SDS011;37916;52.160;21.066;2023-04-21T03:20:12;8.88;;;5.40;;
35243;SDS011;37916;52.160;21.066;2023-04-21T03:30:12;10.10;;;5.95;;
35243;SDS011;37916;52.160;21.066;2023-04-21T03:40:13;9.25;;;6.00;;
35243;SDS011;37916;52.160;21.066;2023-04-21T03:50:14;9.70;;;5.55;;
35243;SDS011;37916;52.160;21.066;2023-04-21T04:00:15;9.63;;;5.75;;
35243;SDS011;37916;52.160;21.066;2023-04-21T04:10:15;10.80;;;5.88;;
35243;SDS011;37916;52.160;21.066;2023-04-21T04:20:16;9.90;;;5.90;;
35243;SDS011;37916;52.160;21.066;2023-04-21T04:30:17;10.43;;;5.90;;
35243;SDS011;37916;52.160;21.066;2023-04-21T04:40:17;8.93;;;5.55;;
35243;SDS011;37916;52.160;21.066;2023-04-21T04:50:19;9.98;;;4.65;;
35243;SDS011;37916;52.160;21.066;2023-04-21T05:00:20;9.80;;;5.43;;
35243;SDS011;37916;52.160;21.066;2023-04-21T05:10:21;8.68;;;4.93;;
35243;SDS011;37916;52.160;21.066;2023-04-21T05:20:22;7.50;;;4.75;;
35243;SDS011;37916;52.160;21.066;2023-04-21T05:30:23;8.55;;;4.72;;
35243;SDS011;37916;52.160;21.066;2023-04-21T05:40:23;10.13;;;4.63;;
35243;SDS011;37916;52.160;21.066;2023-04-21T05:50:24;11.30;;;4.57;;
35243;SDS011;37916;52.160;21.066;2023-04-21T06:00:27;9.40;;;4.67;;
35243;SDS011;37916;52.160;21.066;2023-04-21T06:10:28;7.20;;;4.30;;
35243;SDS011;37916;52.160;21.066;2023-04-21T06:20:29;7.05;;;4.13;;
35243;SDS011;37916;52.160;21.066;2023-04-21T06:30:30;7.43;;;3.77;;
35243;SDS011;37916;52.160;21.066;2023-04-21T06:40:31;7.90;;;4.23;;
35243;SDS011;37916;52.160;21.066;2023-04-21T06:50:32;9.27;;;3.42;;
35243;SDS011;37916;52.160;21.066;2023-04-21T07:00:34;4.68;;;3.00;;
35243;SDS011;37916;52.160;21.066;2023-04-21T07:10:34;5.45;;;3.50;;
35243;SDS011;37916;52.160;21.066;2023-04-21T07:20:35;6.68;;;2.92;;
35243;SDS011;37916;52.160;21.066;2023-04-21T07:30:36;6.28;;;2.65;;
35243;SDS011;37916;52.160;21.066;2023-04-21T07:40:36;6.35;;;2.95;;
35243;SDS011;37916;52.160;21.066;2023-04-21T07:50:37;5.60;;;2.80;;
35243;SDS011;37916;52.160;21.066;2023-04-21T08:00:38;3.63;;;2.40;;
35243;SDS011;37916;52.160;21.066;2023-04-21T08:10:38;3.90;;;2.30;;
35243;SDS011;37916;52.160;21.066;2023-04-21T08:20:39;4.40;;;2.63;;
35243;SDS011;37916;52.160;21.066;2023-04-21T08:30:40;2.97;;;2.10;;
35243;SDS011;37916;52.160;21.066;2023-04-21T08:40:41;4.32;;;2.17;;
35243;SDS011;37916;52.160;21.066;2023-04-21T08:50:42;3.03;;;1.92;;
35243;SDS011;37916;52.160;21.066;2023-04-21T09:00:44;3.37;;;1.73;;
35243;SDS011;37916;52.160;21.066;2023-04-21T09:10:46;4.27;;;2.20;;
35243;SDS011;37916;52.160;21.066;2023-04-21T09:30:53;2.28;;;1.60;;
35243;SDS011;37916;52.160;21.066;2023-04-21T09:40:56;3.83;;;2.15;;
35243;SDS011;37916;52.160;21.066;2023-04-21T09:50:57;3.63;;;1.83;;
35243;SDS011;37916;52.160;21.066;2023-04-21T10:00:58;3.40;;;1.70;;
35243;SDS011;37916;52.160;21.066;2023-04-21T10:10:59;4.32;;;1.90;;
35243;SDS011;37916;52.160;21.066;2023-04-21T10:21:01;4.43;;;2.10;;
35243;SDS011;37916;52.160;21.066;2023-04-21T10:41:42;4.97;;;2.00;;
35243;SDS011;37916;52.160;21.066;2023-04-21T11:02:02;6.03;;;1.83;;
35243;SDS011;37916;52.160;21.066;2023-04-21T11:12:16;3.00;;;1.80;;
35243;SDS011;37916;52.160;21.066;2023-04-21T11:22:18;2.72;;;1.45;;
35243;SDS011;37916;52.160;21.066;2023-04-21T11:32:20;4.17;;;1.70;;
35243;SDS011;37916;52.160;21.066;2023-04-21T11:42:21;3.83;;;1.92;;
35243;SDS011;37916;52.160;21.066;2023-04-21T12:02:26;3.80;;;2.28;;
35243;SDS011;37916;52.160;21.066;2023-04-21T12:12:28;4.80;;;2.00;;
35243;SDS011;37916;52.160;21.066;2023-04-21T12:22:28;4.10;;;2.05;;
35243;SDS011;37916;52.160;21.066;2023-04-21T12:32:29;2.50;;;1.83;;
35243;SDS011;37916;52.160;21.066;2023-04-21T12:42:30;3.22;;;1.70;;
35243;SDS011;37916;52.160;21.066;2023-04-21T12:52:30;4.20;;;1.70;;
35243;SDS011;37916;52.160;21.066;2023-04-21T13:02:31;4.50;;;1.80;;
35243;SDS011;37916;52.160;21.066;2023-04-21T13:12:35;2.80;;;1.50;;
35243;SDS011;37916;52.160;21.066;2023-04-21T13:22:36;4.13;;;2.20;;
35243;SDS011;37916;52.160;21.066;2023-04-21T13:32:37;4.20;;;1.70;;
35243;SDS011;37916;52.160;21.066;2023-04-21T13:42:38;7.55;;;1.90;;
35243;SDS011;37916;52.160;21.066;2023-04-21T13:52:39;4.72;;;2.13;;
35243;SDS011;37916;52.160;21.066;2023-04-21T14:02:40;4.80;;;2.10;;
35243;SDS011;37916;52.160;21.066;2023-04-21T14:12:41;3.63;;;1.85;;
35243;SDS011;37916;52.160;21.066;2023-04-21T14:22:43;4.77;;;1.63;;
35243;SDS011;37916;52.160;21.066;2023-04-21T14:32:44;3.15;;;1.45;;
35243;SDS011;37916;52.160;21.066;2023-04-21T14:42:45;2.42;;;1.55;;
35243;SDS011;37916;52.160;21.066;2023-04-21T14:52:49;3.00;;;1.73;;
35243;SDS011;37916;52.160;21.066;2023-04-21T15:02:49;2.53;;;1.47;;
35243;SDS011;37916;52.160;21.066;2023-04-21T15:12:50;7.10;;;2.10;;
35243;SDS011;37916;52.160;21.066;2023-04-21T15:22:51;1.90;;;1.38;;
35243;SDS011;37916;52.160;21.066;2023-04-21T15:32:52;3.15;;;1.50;;
35243;SDS011;37916;52.160;21.066;2023-04-21T15:42:53;3.25;;;1.52;;
35243;SDS011;37916;52.160;21.066;2023-04-21T15:52:53;5.30;;;2.03;;
35243;SDS011;37916;52.160;21.066;2023-04-21T16:02:54;4.30;;;1.85;;
35243;SDS011;37916;52.160;21.066;2023-04-21T16:12:55;4.72;;;1.52;;
35243;SDS011;37916;52.160;21.066;2023-04-21T16:22:56;3.63;;;1.80;;
35243;SDS011;37916;52.160;21.066;2023-04-21T16:32:57;5.05;;;2.15;;
35243;SDS011;37916;52.160;21.066;2023-04-21T16:42:58;4.00;;;2.13;;
35243;SDS011;37916;52.160;21.066;2023-04-21T16:52:58;3.13;;;1.85;;
35243;SDS011;37916;52.160;21.066;2023-04-21T17:02:59;4.32;;;1.80;;
35243;SDS011;37916;52.160;21.066;2023-04-21T17:13:00;6.78;;;2.08;;
35243;SDS011;37916;52.160;21.066;2023-04-21T17:23:00;4.88;;;3.00;;
35243;SDS011;37916;52.160;21.066;2023-04-21T17:33:04;4.78;;;1.98;;
35243;SDS011;37916;52.160;21.066;2023-04-21T17:43:06;4.90;;;2.60;;
35243;SDS011;37916;52.160;21.066;2023-04-21T17:53:19;5.03;;;2.35;;
35243;SDS011;37916;52.160;21.066;2023-04-21T18:03:20;8.00;;;2.97;;
35243;SDS011;37916;52.160;21.066;2023-04-21T18:13:20;7.72;;;3.53;;
35243;SDS011;37916;52.160;21.066;2023-04-21T18:23:21;8.90;;;4.07;;
35243;SDS011;37916;52.160;21.066;2023-04-21T18:33:22;12.32;;;5.40;;
35243;SDS011;37916;52.160;21.066;2023-04-21T18:43:23;10.27;;;5.97;;
35243;SDS011;37916;52.160;21.066;2023-04-21T18:53:49;15.65;;;6.63;;
35243;SDS011;37916;52.160;21.066;2023-04-21T19:03:50;6.80;;;3.50;;
35243;SDS011;37916;52.160;21.066;2023-04-21T19:13:50;9.43;;;3.83;;
35243;SDS011;37916;52.160;21.066;2023-04-21T19:23:51;7.43;;;3.63;;
35243;SDS011;37916;52.160;21.066;2023-04-21T19:33:52;10.38;;;4.35;;
35243;SDS011;37916;52.160;21.066;2023-04-21T19:43:53;11.20;;;5.03;;
35243;SDS011;37916;52.160;21.066;2023-04-21T19:53:53;10.82;;;5.32;;
35243;SDS011;37916;52.160;21.066;2023-04-21T20:03:54;12.23;;;6.85;;
35243;SDS011;37916;52.160;21.066;2023-04-21T20:13:55;14.38;;;7.40;;
35243;SDS011;37916;52.160;21.066;2023-04-21T20:23:55;11.95;;;5.47;;
35243;SDS011;37916;52.160;21.066;2023-04-21T20:33:56;11.35;;;6.50;;
35243;SDS011;37916;52.160;21.066;2023-04-21T20:43:58;17.00;;;6.72;;
35243;SDS011;37916;52.160;21.066;2023-04-21T20:54:02;14.73;;;6.15;;
35243;SDS011;37916;52.160;21.066;2023-04-21T21:04:03;14.90;;;8.13;;
35243;SDS011;37916;52.160;21.066;2023-04-21T21:14:04;16.60;;;8.50;;
35243;SDS011;37916;52.160;21.066;2023-04-21T21:24:04;16.38;;;9.45;;
35243;SDS011;37916;52.160;21.066;2023-04-21T21:34:05;16.42;;;9.32;;
35243;SDS011;37916;52.160;21.066;2023-04-21T21:44:06;25.85;;;14.32;;
35243;SDS011;37916;52.160;21.066;2023-04-21T21:54:07;26.77;;;11.63;;
35243;SDS011;37916;52.160;21.066;2023-04-21T22:04:07;19.85;;;10.13;;
35243;SDS011;37916;52.160;21.066;2023-04-21T22:14:08;17.88;;;8.82;;
35243;SDS011;37916;52.160;21.066;2023-04-21T22:24:09;23.85;;;8.95;;
35243;SDS011;37916;52.160;21.066;2023-04-21T22:34:10;16.55;;;9.05;;
35243;SDS011;37916;52.160;21.066;2023-04-21T22:44:13;16.67;;;9.15;;
35243;SDS011;37916;52.160;21.066;2023-04-21T22:54:14;20.58;;;11.32;;
35243;SDS011;37916;52.160;21.066;2023-04-21T23:04:15;18.40;;;8.88;;
35243;SDS011;37916;52.160;21.066;2023-04-21T23:14:16;19.35;;;9.65;;
35243;SDS011;37916;52.160;21.066;2023-04-21T23:24:17;18.60;;;9.53;;
35243;SDS011;37916;52.160;21.066;2023-04-21T23:34:18;18.13;;;8.93;;
35243;SDS011;37916;52.160;21.066;2023-04-21T23:44:18;16.93;;;9.73;;
35243;SDS011;37916;52.160;21.066;2023-04-21T23:54:19;17.70;;;8.63;;
